Time,TemperatureF,DewpointF,PressureIn,WindDirection,WindDirectionDegrees,WindSpeedMPH,WindSpeedGustMPH,Humidity,HourlyPrecipIn,Conditions,Clouds,dailyrainin,SolarRadiationWatts/m^2,SoftwareType,DateUTC
2013-05-15 00:00:00,72.0,59.2,29.96,SW,220,2.0,5.0,64,0.00,CLR,,0.00,0.0,WeatherDisplay:10.37,2013-05-15 05:00:00,
2013-05-15 00:10:00,71.6,59.2,29.96,SW,226,2.0,3.0,65,0.00,CLR,,0.00,0.0,WeatherDisplay:10.37,2013-05-15 05:10:00,
2013-05-15 00:20:00,71.3,58.9,29.96,SSW,213,1.0,4.0,65,0.00,CLR,,0.00,0.0,WeatherDisplay:10.37,2013-05-15 05:20:00,
2013-05-15 00:30:00,71.1,58.7,29.96,SSW,213,2.0,3.0,65,0.00,CLR,,0.00,0.0,WeatherDisplay:10.37,2013-05-15 05:30:00,
2013-05-15 00:40:00,70.8,58.8,29.96,SSW,213,1.0,3.0,66,0.00,CLR,,0.00,0.0,WeatherDisplay:10.37,2013-05-15 05:40:00,
2013-05-15 00:50:00,70.5,58.6,29.96,SSW,213,1.0,3.0,66,0.00,CLR,,0.00,0.0,WeatherDisplay:10.37,2013-05-15 05:50:00,
2013-05-15 01:00:00,70.3,58.4,29.96,SW,217,1.0,3.0,66,0.00,CLR,,0.00,0.0,WeatherDisplay:10.37,2013-05-15 06:00:00,
2013-05-15 01:10:00,69.8,58.4,29.96,SSW,202,1.0,2.0,67,0.00,CLR,,0.00,0.0,WeatherDisplay:10.37,2013-05-15 06:10:00,
2013-05-15 01:20:00,69.6,58.2,29.96,SSW,211,0.0,2.0,67,0.00,CLR,,0.00,0.0,WeatherDisplay:10.37,2013-05-15 06:20:00,
2013-05-15 01:30:00,69.2,58.2,29.96,SSW,201,1.0,2.0,68,0.00,CLR,,0.00,0.0,WeatherDisplay:10.37,2013-05-15 06:30:00,
2013-05-15 01:40:00,69.2,58.1,29.96,SSW,202,2.0,5.0,68,0.00,CLR,,0.00,0.0,WeatherDisplay:10.37,2013-05-15 06:40:00,
2013-05-15 01:50:00,69.6,57.7,29.97,SW,216,2.0,4.0,66,0.00,CLR,,0.00,0.0,WeatherDisplay:10.37,2013-05-15 06:50:00,
2013-05-15 02:00:00,69.4,57.6,29.97,SSW,205,2.0,4.0,66,0.00,CLR,,0.00,0.0,WeatherDisplay:10.37,2013-05-15 07:00:00,
2013-05-15 02:10:00,69.5,57.7,29.97,SSW,202,3.0,5.0,66,0.00,CLR,,0.00,0.0,WeatherDisplay:10.37,2013-05-15 07:10:00,
2013-05-15 02:20:00,69.9,57.6,29.97,SW,215,2.0,8.0,65,0.00,CLR,,0.00,0.0,WeatherDisplay:10.37,2013-05-15 07:20:00,
2013-05-15 02:30:00,69.9,57.2,29.97,SSW,207,2.0,6.0,64,0.00,CLR,,0.00,0.0,WeatherDisplay:10.37,2013-05-15 07:30:00,
2013-05-15 02:40:00,70.2,57.0,29.97,SW,220,3.0,6.0,63,0.00,CLR,,0.00,0.0,WeatherDisplay:10.37,2013-05-15 07:40:00,
2013-05-15 02:50:00,70.7,56.6,29.97,SW,219,5.0,9.0,61,0.00,CLR,,0.00,0.0,WeatherDisplay:10.37,2013-05-15 07:50:00,
2013-05-15 03:00:00,71.3,56.2,29.97,SW,218,5.0,12.0,59,0.00,CLR,,0.00,0.0,WeatherDisplay:10.37,2013-05-15 08:00:00,
2013-05-15 03:10:00,71.6,56.0,29.97,SW,227,6.0,10.0,58,0.00,CLR,,0.00,0.0,WeatherDisplay:10.37,2013-05-15 08:10:00,
2013-05-15 03:20:00,71.4,55.8,29.97,SW,221,3.0,10.0,58,0.00,CLR,,0.00,0.0,WeatherDisplay:10.37,2013-05-15 08:20:00,
2013-05-15 03:30:00,71.1,56.0,29.97,SW,219,3.0,9.0,59,0.00,CLR,,0.00,0.0,WeatherDisplay:10.37,2013-05-15 08:30:00,
2013-05-15 03:40:00,71.1,56.0,29.97,SW,217,5.0,9.0,59,0.00,CLR,,0.00,0.0,WeatherDisplay:10.37,2013-05-15 08:40:00,
2013-05-15 03:50:00,71.0,55.9,29.97,SW,216,5.0,12.0,59,0.00,CLR,,0.00,0.0,WeatherDisplay:10.37,2013-05-15 08:50:00,
2013-05-15 04:00:00,70.9,56.3,29.98,SW,219,5.0,9.0,60,0.00,CLR,,0.00,0.0,WeatherDisplay:10.37,2013-05-15 09:00:00,
2013-05-15 04:10:00,70.5,55.9,29.98,SSW,213,3.0,9.0,60,0.00,CLR,,0.00,0.0,WeatherDisplay:10.37,2013-05-15 09:10:00,
2013-05-15 04:20:00,70.4,55.8,29.99,SW,216,3.0,10.0,60,0.00,CLR,,0.00,0.0,WeatherDisplay:10.37,2013-05-15 09:20:00,
2013-05-15 04:30:00,70.3,55.8,29.99,SW,222,5.0,8.0,60,0.00,CLR,,0.00,0.0,WeatherDisplay:10.37,2013-05-15 09:30:00,
2013-05-15 04:40:00,70.6,55.6,29.99,SSW,209,6.0,12.0,59,0.00,CLR,,0.00,0.0,WeatherDisplay:10.37,2013-05-15 09:40:00,
2013-05-15 04:50:00,70.5,55.5,29.99,SW,217,6.0,12.0,59,0.00,CLR,,0.00,0.0,WeatherDisplay:10.37,2013-05-15 09:50:00,
2013-05-15 05:00:00,70.6,55.6,29.99,SW,223,7.0,14.0,59,0.00,CLR,,0.00,0.0,WeatherDisplay:10.37,2013-05-15 10:00:00,
2013-05-15 05:10:00,70.2,55.7,29.99,SW,220,5.0,8.0,60,0.00,CLR,,0.00,0.0,WeatherDisplay:10.37,2013-05-15 10:10:00,
2013-05-15 05:20:00,69.8,55.7,30.00,SW,226,3.0,8.0,61,0.00,CLR,,0.00,0.0,WeatherDisplay:10.37,2013-05-15 10:20:00,
2013-05-15 05:30:00,69.2,55.6,30.00,SW,220,3.0,6.0,62,0.00,CLR,,0.00,0.0,WeatherDisplay:10.37,2013-05-15 10:30:00,
2013-05-15 05:40:00,68.9,55.7,30.00,SW,220,1.0,6.0,63,0.00,CLR,,0.00,0.0,WeatherDisplay:10.37,2013-05-15 10:40:00,
2013-05-15 05:50:00,68.3,55.6,30.00,SW,224,2.0,6.0,64,0.00,CLR,,0.00,0.0,WeatherDisplay:10.37,2013-05-15 10:50:00,
2013-05-15 06:00:00,67.9,55.7,30.01,SW,220,2.0,6.0,65,0.00,CLR,,0.00,0.0,WeatherDisplay:10.37,2013-05-15 11:00:00,
2013-05-15 06:10:00,67.7,55.9,30.00,SW,214,2.0,5.0,66,0.00,CLR,,0.00,0.0,WeatherDisplay:10.37,2013-05-15 11:10:00,
2013-05-15 06:20:00,67.5,56.1,30.01,SW,216,1.0,5.0,67,0.00,CLR,,0.00,0.0,WeatherDisplay:10.37,2013-05-15 11:20:00,
2013-05-15 06:40:00,67.7,55.9,30.01,SW,216,2.0,7.0,66,0.00,CLR,,0.00,0.0,WeatherDisplay:10.37,2013-05-15 11:40:00,
2013-05-15 06:50:00,68.6,56.4,30.01,SSW,209,2.0,6.0,65,0.00,CLR,,0.00,0.0,WeatherDisplay:10.37,2013-05-15 11:50:00,
2013-05-15 07:00:00,69.1,57.2,30.02,SSW,203,1.0,6.0,66,0.00,CLR,,0.00,0.0,WeatherDisplay:10.37,2013-05-15 12:00:00,
2013-05-15 07:10:00,69.2,57.8,30.02,SSW,211,1.0,2.0,67,0.00,CLR,,0.00,0.0,WeatherDisplay:10.37,2013-05-15 12:10:00,
2013-05-15 07:20:00,69.6,57.7,30.02,SSW,211,1.0,3.0,66,0.00,CLR,,0.00,0.0,WeatherDisplay:10.37,2013-05-15 12:20:00,
2013-05-15 07:30:00,70.3,57.9,30.02,SW,219,2.0,6.0,65,0.00,CLR,,0.00,0.0,WeatherDisplay:10.37,2013-05-15 12:30:00,
2013-05-15 07:40:00,70.8,58.4,30.02,SW,220,3.0,8.0,65,0.00,CLR,,0.00,0.0,WeatherDisplay:10.37,2013-05-15 12:40:00,
2013-05-15 07:50:00,71.4,58.1,30.03,SW,221,3.0,8.0,63,0.00,CLR,,0.00,0.0,WeatherDisplay:10.37,2013-05-15 12:50:00,
2013-05-15 08:00:00,71.8,58.1,30.03,SW,216,6.0,12.0,62,0.00,CLR,,0.00,0.0,WeatherDisplay:10.37,2013-05-15 13:00:00,
2013-05-15 08:10:00,72.2,58.9,30.03,SW,216,5.0,12.0,63,0.00,CLR,,0.00,0.0,WeatherDisplay:10.37,2013-05-15 13:10:00,
2013-05-15 08:20:00,72.8,58.6,30.03,SSW,212,3.0,10.0,61,0.00,CLR,,0.00,0.0,WeatherDisplay:10.37,2013-05-15 13:20:00,
2013-05-15 08:30:00,73.4,58.7,30.03,SW,223,5.0,12.0,60,0.00,CLR,,0.00,0.0,WeatherDisplay:10.37,2013-05-15 13:30:00,
2013-05-15 08:40:00,74.0,58.3,30.03,SW,220,6.0,10.0,58,0.00,CLR,,0.00,0.0,WeatherDisplay:10.37,2013-05-15 13:40:00,
2013-05-15 08:50:00,74.4,58.1,30.03,SW,218,6.0,12.0,57,0.00,CLR,,0.00,0.0,WeatherDisplay:10.37,2013-05-15 13:50:00,
2013-05-15 09:00:00,75.1,58.3,30.03,SW,230,5.0,9.0,56,0.00,CLR,,0.00,0.0,WeatherDisplay:10.37,2013-05-15 14:00:00,
2013-05-15 09:10:00,75.5,56.6,30.03,SW,222,7.0,15.0,52,0.00,CLR,,0.00,0.0,WeatherDisplay:10.37,2013-05-15 14:10:00,
2013-05-15 09:20:00,75.6,56.2,30.03,SW,221,5.0,17.0,51,0.00,CLR,,0.00,0.0,WeatherDisplay:10.37,2013-05-15 14:20:00,
2013-05-15 09:30:00,76.2,56.8,30.03,SW,226,5.0,15.0,51,0.00,CLR,,0.00,0.0,WeatherDisplay:10.37,2013-05-15 14:30:00,
2013-05-15 09:40:00,76.4,55.3,30.03,SW,222,5.0,14.0,48,0.00,CLR,,0.00,0.0,WeatherDisplay:10.37,2013-05-15 14:40:00,
2013-05-15 09:50:00,77.1,53.5,30.03,SW,217,6.0,14.0,44,0.00,CLR,,0.00,0.0,WeatherDisplay:10.37,2013-05-15 14:50:00,
2013-05-15 10:00:00,77.4,53.1,30.02,SW,227,6.0,12.0,43,0.00,CLR,,0.00,0.0,WeatherDisplay:10.37,2013-05-15 15:00:00,
2013-05-15 10:10:00,77.9,53.0,30.02,SW,215,6.0,15.0,42,0.00,CLR,,0.00,0.0,WeatherDisplay:10.37,2013-05-15 15:10:00,
2013-05-15 10:20:00,78.5,52.1,30.02,SW,229,7.0,14.0,40,0.00,CLR,,0.00,0.0,WeatherDisplay:10.37,2013-05-15 15:20:00,
2013-05-15 10:30:00,78.8,53.1,30.02,SW,217,6.0,13.0,41,0.00,CLR,,0.00,0.0,WeatherDisplay:10.37,2013-05-15 15:30:00,
2013-05-15 10:40:00,79.2,52.8,30.02,SW,217,5.0,12.0,40,0.00,CLR,,0.00,0.0,WeatherDisplay:10.37,2013-05-15 15:40:00,
2013-05-15 10:50:00,79.1,51.3,30.02,SW,222,7.0,12.0,38,0.00,CLR,,0.00,0.0,WeatherDisplay:10.37,2013-05-15 15:50:00,
2013-05-15 11:00:00,79.7,53.2,30.02,SW,220,7.0,14.0,40,0.00,CLR,,0.00,0.0,WeatherDisplay:10.37,2013-05-15 16:00:00,
2013-05-15 11:10:00,79.7,53.3,30.02,SW,224,6.0,17.0,40,0.00,CLR,,0.00,0.0,WeatherDisplay:10.37,2013-05-15 16:10:00,
2013-05-15 11:20:00,80.0,54.8,30.02,SW,234,7.0,14.0,42,0.00,CLR,,0.00,0.0,WeatherDisplay:10.37,2013-05-15 16:20:00,
2013-05-15 11:30:00,80.5,55.9,30.01,SW,223,5.0,14.0,43,0.00,CLR,,0.00,0.0,WeatherDisplay:10.37,2013-05-15 16:30:00,
2013-05-15 11:50:00,81.2,58.5,30.01,SW,218,7.0,10.0,46,0.00,CLR,,0.00,0.0,WeatherDisplay:10.37,2013-05-15 16:50:00,
2013-05-15 12:00:00,80.8,58.7,30.01,SW,221,7.0,13.0,47,0.00,CLR,,0.00,0.0,WeatherDisplay:10.37,2013-05-15 17:00:00,
2013-05-15 12:10:00,80.7,58.0,30.00,SW,217,8.0,12.0,46,0.00,CLR,,0.00,0.0,WeatherDisplay:10.37,2013-05-15 17:10:00,
2013-05-15 12:20:00,80.9,59.4,30.00,SW,216,5.0,12.0,48,0.00,CLR,,0.00,0.0,WeatherDisplay:10.37,2013-05-15 17:20:00,
2013-05-15 12:30:00,81.2,59.6,29.99,SW,222,8.0,12.0,48,0.00,CLR,,0.00,0.0,WeatherDisplay:10.37,2013-05-15 17:30:00,
2013-05-15 12:40:00,81.9,62.0,29.99,SW,216,3.0,15.0,51,0.00,CLR,,0.00,0.0,WeatherDisplay:10.37,2013-05-15 17:40:00,
2013-05-15 12:50:00,82.1,61.1,29.98,SSW,211,5.0,10.0,49,0.00,CLR,,0.00,0.0,WeatherDisplay:10.37,2013-05-15 17:50:00,
2013-05-15 13:00:00,82.3,60.6,29.98,SW,217,5.0,10.0,48,0.00,CLR,,0.00,0.0,WeatherDisplay:10.37,2013-05-15 18:00:00,
2013-05-15 13:10:00,82.1,60.5,29.98,SW,218,7.0,12.0,48,0.00,CLR,,0.00,0.0,WeatherDisplay:10.37,2013-05-15 18:10:00,
2013-05-15 13:20:00,82.3,60.6,29.97,SSW,207,7.0,12.0,48,0.00,CLR,,0.00,0.0,WeatherDisplay:10.37,2013-05-15 18:20:00,
2013-05-15 13:30:00,82.3,61.2,29.97,SSW,206,7.0,13.0,49,0.00,CLR,,0.00,0.0,WeatherDisplay:10.37,2013-05-15 18:30:00,
2013-05-15 13:40:00,82.4,61.3,29.97,SSW,197,7.0,12.0,49,0.00,CLR,,0.00,0.0,WeatherDisplay:10.37,2013-05-15 18:40:00,
2013-05-15 13:50:00,82.6,61.5,29.96,SW,221,7.0,12.0,49,0.00,CLR,,0.00,0.0,WeatherDisplay:10.37,2013-05-15 18:50:00,
2013-05-15 14:00:00,82.7,61.0,29.96,SW,217,8.0,14.0,48,0.00,CLR,,0.00,0.0,WeatherDisplay:10.37,2013-05-15 19:00:00,
2013-05-15 14:10:00,82.8,61.7,29.96,SSW,212,9.0,18.0,49,0.00,CLR,,0.00,0.0,WeatherDisplay:10.37,2013-05-15 19:10:00,
2013-05-15 14:20:00,83.2,62.6,29.95,SW,224,7.0,14.0,50,0.00,CLR,,0.00,0.0,WeatherDisplay:10.37,2013-05-15 19:20:00,
2013-05-15 14:30:00,83.2,61.5,29.94,SW,225,7.0,14.0,48,0.00,CLR,,0.00,0.0,WeatherDisplay:10.37,2013-05-15 19:30:00,
2013-05-15 14:40:00,83.7,63.6,29.94,SW,221,7.0,14.0,51,0.00,CLR,,0.00,0.0,WeatherDisplay:10.37,2013-05-15 19:40:00,
2013-05-15 14:50:00,83.2,62.6,29.94,SW,221,8.0,18.0,50,0.00,CLR,,0.00,0.0,WeatherDisplay:10.37,2013-05-15 19:50:00,
2013-05-15 15:00:00,82.9,62.4,29.94,SW,215,8.0,15.0,50,0.00,CLR,,0.00,0.0,WeatherDisplay:10.37,2013-05-15 20:00:00,
2013-05-15 15:10:00,83.1,62.0,29.93,SW,220,8.0,17.0,49,0.00,CLR,,0.00,0.0,WeatherDisplay:10.37,2013-05-15 20:10:00,
2013-05-15 15:20:00,83.4,63.4,29.93,SW,214,5.0,14.0,51,0.00,CLR,,0.00,0.0,WeatherDisplay:10.37,2013-05-15 20:20:00,
2013-05-15 15:30:00,83.5,64.0,29.93,SW,219,5.0,13.0,52,0.00,CLR,,0.00,0.0,WeatherDisplay:10.37,2013-05-15 20:30:00,
2013-05-15 15:40:00,83.0,63.0,29.93,SSW,212,6.0,13.0,51,0.00,CLR,,0.00,0.0,WeatherDisplay:10.37,2013-05-15 20:40:00,
2013-05-15 16:00:00,81.9,60.3,29.92,SW,214,3.0,9.0,48,0.00,CLR,,0.00,0.0,WeatherDisplay:10.37,2013-05-15 21:00:00,
2013-05-15 16:10:00,81.8,57.1,29.92,SW,214,3.0,13.0,43,0.00,CLR,,0.00,0.0,WeatherDisplay:10.37,2013-05-15 21:10:00,
2013-05-15 16:20:00,82.3,56.9,29.92,SSW,204,8.0,15.0,42,0.00,CLR,,0.00,0.0,WeatherDisplay:10.37,2013-05-15 21:20:00,
2013-05-15 16:30:00,82.1,50.9,29.91,SW,221,8.0,15.0,34,0.00,CLR,,0.00,0.0,WeatherDisplay:10.37,2013-05-15 21:30:00,
2013-05-15 16:40:00,82.5,51.3,29.91,SW,221,7.0,16.0,34,0.00,CLR,,0.00,0.0,WeatherDisplay:10.37,2013-05-15 21:40:00,
2013-05-15 16:50:00,82.2,51.0,29.91,SW,215,7.0,15.0,34,0.00,CLR,,0.00,0.0,WeatherDisplay:10.37,2013-05-15 21:50:00,
2013-05-15 17:00:00,81.9,52.3,29.91,SSW,207,6.0,12.0,36,0.00,CLR,,0.00,0.0,WeatherDisplay:10.37,2013-05-15 22:00:00,
2013-05-15 17:10:00,82.8,54.6,29.90,SW,222,2.0,10.0,38,0.00,CLR,,0.00,0.0,WeatherDisplay:10.37,2013-05-15 22:10:00,
2013-05-15 17:20:00,83.4,52.1,29.90,SW,216,6.0,14.0,34,0.00,CLR,,0.00,0.0,WeatherDisplay:10.37,2013-05-15 22:20:00,
2013-05-15 17:30:00,84.0,54.9,29.90,SW,216,3.0,9.0,37,0.00,CLR,,0.00,0.0,WeatherDisplay:10.37,2013-05-15 22:30:00,
2013-05-15 17:40:00,83.5,53.8,29.90,SSW,212,5.0,12.0,36,0.00,CLR,,0.00,0.0,WeatherDisplay:10.37,2013-05-15 22:40:00,
2013-05-15 17:50:00,83.3,53.6,29.90,SW,214,6.0,12.0,36,0.00,CLR,,0.00,0.0,WeatherDisplay:10.37,2013-05-15 22:50:00,
2013-05-15 18:00:00,83.3,54.3,29.90,SW,218,2.0,10.0,37,0.00,CLR,,0.00,0.0,WeatherDisplay:10.37,2013-05-15 23:00:00,
2013-05-15 18:10:00,83.1,51.8,29.89,SSW,212,5.0,12.0,34,0.00,CLR,,0.00,0.0,WeatherDisplay:10.37,2013-05-15 23:10:00,
2013-05-15 18:20:00,82.8,52.3,29.89,SW,217,3.0,12.0,35,0.00,CLR,,0.00,0.0,WeatherDisplay:10.37,2013-05-15 23:20:00,
2013-05-15 18:30:00,82.4,52.0,29.90,SW,224,3.0,10.0,35,0.00,CLR,,0.00,0.0,WeatherDisplay:10.37,2013-05-15 23:30:00,
2013-05-15 18:40:00,81.2,50.2,29.90,SSW,213,5.0,9.0,34,0.00,CLR,,0.00,0.0,WeatherDisplay:10.37,2013-05-15 23:40:00,
2013-05-15 18:50:00,80.8,49.0,29.90,SSW,208,7.0,15.0,33,0.00,CLR,,0.00,0.0,WeatherDisplay:10.37,2013-05-15 23:50:00,
2013-05-15 19:00:00,80.1,49.2,29.90,SW,217,3.0,12.0,34,0.00,CLR,,0.00,0.0,WeatherDisplay:10.37,2013-05-16 00:00:00,
2013-05-15 19:10:00,79.6,51.1,29.90,SW,216,5.0,12.0,37,0.00,CLR,,0.00,0.0,WeatherDisplay:10.37,2013-05-16 00:10:00,
2013-05-15 19:20:00,78.8,51.1,29.90,SW,220,3.0,10.0,38,0.00,CLR,,0.00,0.0,WeatherDisplay:10.37,2013-05-16 00:20:00,
2013-05-15 19:30:00,78.3,52.0,29.90,SW,215,3.0,6.0,40,0.00,CLR,,0.00,0.0,WeatherDisplay:10.37,2013-05-16 00:30:00,
2013-05-15 19:40:00,78.0,52.4,29.90,SW,217,2.0,6.0,41,0.00,CLR,,0.00,0.0,WeatherDisplay:10.37,2013-05-16 00:40:00,
2013-05-15 19:50:00,77.6,52.7,29.90,SW,218,3.0,7.0,42,0.00,CLR,,0.00,0.0,WeatherDisplay:10.37,2013-05-16 00:50:00,
2013-05-15 20:00:00,77.4,52.5,29.90,SW,220,2.0,6.0,42,0.00,CLR,,0.00,0.0,WeatherDisplay:10.37,2013-05-16 01:00:00,
2013-05-15 20:10:00,77.2,51.7,29.91,SW,220,5.0,7.0,41,0.00,CLR,,0.00,0.0,WeatherDisplay:10.37,2013-05-16 01:10:00,
2013-05-15 20:20:00,76.9,52.1,29.91,SW,220,2.0,5.0,42,0.00,CLR,,0.00,0.0,WeatherDisplay:10.37,2013-05-16 01:20:00,
2013-05-15 20:30:00,76.5,52.3,29.91,SW,220,3.0,5.0,43,0.00,CLR,,0.00,0.0,WeatherDisplay:10.37,2013-05-16 01:30:00,
2013-05-15 20:40:00,76.1,52.6,29.91,SW,219,2.0,4.0,44,0.00,CLR,,0.00,0.0,WeatherDisplay:10.37,2013-05-16 01:40:00,
2013-05-15 20:50:00,75.7,52.8,29.91,SW,214,1.0,3.0,45,0.00,CLR,,0.00,0.0,WeatherDisplay:10.37,2013-05-16 01:50:00,
2013-05-15 21:00:00,75.3,53.7,29.92,SW,214,1.0,2.0,47,0.00,CLR,,0.00,0.0,WeatherDisplay:10.37,2013-05-16 02:00:00,
2013-05-15 21:10:00,74.8,53.7,29.92,SSW,206,1.0,2.0,48,0.00,CLR,,0.00,0.0,WeatherDisplay:10.37,2013-05-16 02:10:00,
2013-05-15 21:20:00,74.3,53.9,29.92,SSW,208,1.0,2.0,49,0.00,CLR,,0.00,0.0,WeatherDisplay:10.37,2013-05-16 02:20:00,
2013-05-15 21:30:00,74.0,54.7,29.92,SW,216,1.0,3.0,51,0.00,CLR,,0.00,0.0,WeatherDisplay:10.37,2013-05-16 02:30:00,
2013-05-15 21:40:00,74.0,55.3,29.92,SSW,212,1.0,4.0,52,0.00,CLR,,0.00,0.0,WeatherDisplay:10.37,2013-05-16 02:40:00,
2013-05-15 21:50:00,73.8,55.1,29.93,SW,220,2.0,3.0,52,0.00,CLR,,0.00,0.0,WeatherDisplay:10.37,2013-05-16 02:50:00,
2013-05-15 22:00:00,73.8,55.6,29.93,SW,219,2.0,4.0,53,0.00,CLR,,0.00,0.0,WeatherDisplay:10.37,2013-05-16 03:00:00,
2013-05-15 22:10:00,73.6,55.9,29.93,SSW,205,1.0,3.0,54,0.00,CLR,,0.00,0.0,WeatherDisplay:10.37,2013-05-16 03:10:00,
2013-05-15 22:20:00,73.1,55.9,29.93,South,184,0.0,2.0,55,0.00,CLR,,0.00,0.0,WeatherDisplay:10.37,2013-05-16 03:20:00,
2013-05-15 22:30:00,72.6,56.0,29.93,South,188,1.0,2.0,56,0.00,CLR,,0.00,0.0,WeatherDisplay:10.37,2013-05-16 03:30:00,
2013-05-15 22:40:00,72.1,56.0,29.92,SSW,198,1.0,2.0,57,0.00,CLR,,0.00,0.0,WeatherDisplay:10.37,2013-05-16 03:40:00,
2013-05-15 22:50:00,72.0,55.4,29.92,South,188,1.0,2.0,56,0.00,CLR,,0.00,0.0,WeatherDisplay:10.37,2013-05-16 03:50:00,
2013-05-15 23:00:00,71.8,55.3,29.92,SW,214,0.0,1.0,56,0.00,CLR,,0.00,0.0,WeatherDisplay:10.37,2013-05-16 04:00:00,
2013-05-15 23:10:00,71.7,55.7,29.92,SSW,198,1.0,1.0,57,0.00,CLR,,0.00,0.0,WeatherDisplay:10.37,2013-05-16 04:10:00,
2013-05-15 23:20:00,71.3,55.8,29.92,SSW,207,0.0,2.0,58,0.00,CLR,,0.00,0.0,WeatherDisplay:10.37,2013-05-16 04:20:00,
2013-05-15 23:30:00,70.7,55.7,29.92,SSW,204,1.0,2.0,59,0.00,CLR,,0.00,0.0,WeatherDisplay:10.37,2013-05-16 04:30:00,
2013-05-15 23:40:00,70.3,55.8,29.92,South,189,0.0,2.0,60,0.00,CLR,,0.00,0.0,WeatherDisplay:10.37,2013-05-16 04:40:00,
2013-05-15 23:50:00,70.1,56.0,29.92,SSW,195,0.0,2.0,61,0.00,CLR,,0.00,0.0,WeatherDisplay:10.37,2013-05-16 04:50:00,